East Lewisburg, Pennsylvania
Current Conditions -  °F | °C
As of 3:53 PM on Friday 31 Oct 2014 (Local Time) from KSEG Reporting Station
Broken Clouds Broken Clouds  
Wind Chill: 52°   Ceiling: 6000
Heat Index: 52°   Visibility: 10mi
Dew Point: 34°   Wind: 3mph
Humidity: 50%   Direction: NA
Pressure: 29.89"   Gusts: NA
Location:  41.0147°N, 76.8093°W
Report Text: KSEG 311953Z AUTO VRB03KT 10SM BKN060 11/01 A2989 RMK AO2 SLP123 T01110011
Loading
Personal Weather Stations






























Interactive Weather Map
Tropical Storm Tracking
New forecast layout! Learn more

10-Day Weather Forecast

Advertisements
Track Severe Weather on mobile